Time;durP1;ratioP1;P1;durP2;ratioP2;P2;SDS_P1;SDS_P2;PMS_P1;PMS_P2;Temp;Humidity;BMP_temperature;BMP_pressure;BME280_temperature;BME280_humidity;BME280_pressure;Samples;Min_cycle;Max_cycle;Signal;HPM_P1;HPM_P2
2022/10/09 00:00:46;;;;;;;18.00;8.75;;;6.60;99.90;;;;;;8316473;28;20489;-78
2022/10/09 00:04:47;;;;;;;14.45;6.90;;;6.60;99.90;;;;;;8310806;28;20072;-79
2022/10/09 00:08:48;;;;;;;12.35;7.00;;;6.50;99.90;;;;;;8307239;28;20010;-79
2022/10/09 00:12:49;;;;;;;10.93;5.80;;;6.50;99.90;;;;;;8309878;28;20033;-79
2022/10/09 00:16:49;;;;;;;12.82;6.15;;;6.60;99.90;;;;;;8333231;28;20021;-78
2022/10/09 00:20:50;;;;;;;11.98;6.28;;;6.60;99.90;;;;;;8300859;28;20064;-78
2022/10/09 00:24:50;;;;;;;12.05;6.30;;;6.90;99.90;;;;;;8303269;28;20073;-78
2022/10/09 00:28:51;;;;;;;11.68;6.07;;;6.90;99.90;;;;;;8318285;28;20473;-79
2022/10/09 00:32:52;;;;;;;13.02;5.75;;;6.90;99.90;;;;;;8303471;28;20024;-78
2022/10/09 00:36:53;;;;;;;15.75;5.25;;;6.80;99.90;;;;;;8311036;28;20021;-78
2022/10/09 00:40:53;;;;;;;13.50;5.75;;;6.60;99.90;;;;;;8314437;28;20052;-79
2022/10/09 00:44:58;;;;;;;17.88;7.95;;;6.50;99.90;;;;;;8313883;28;20028;-78
2022/10/09 00:49:19;;;;;;;17.58;7.00;;;6.40;99.90;;;;;;8319668;28;20029;-79
2022/10/09 00:53:24;;;;;;;15.52;6.13;;;6.40;99.90;;;;;;8308823;28;20100;-78
2022/10/09 00:57:25;;;;;;;14.93;5.85;;;6.20;99.90;;;;;;8334381;28;20034;-78
2022/10/09 01:01:26;;;;;;;16.52;6.85;;;6.30;99.90;;;;;;8327165;28;20390;-79
2022/10/09 01:05:53;;;;;;;11.93;6.15;;;6.20;99.90;;;;;;8318158;28;20057;-79
2022/10/09 01:10:23;;;;;;;11.23;5.68;;;6.10;99.90;;;;;;8307628;28;20055;-79
2022/10/09 01:14:28;;;;;;;14.73;5.95;;;6.00;99.90;;;;;;8312688;28;20053;-78
2022/10/09 01:19:07;;;;;;;13.63;6.07;;;6.00;99.90;;;;;;8327578;28;20652;-79
2022/10/09 01:23:18;;;;;;;12.20;6.15;;;6.00;99.90;;;;;;8279461;28;20022;-79
2022/10/09 01:27:26;;;;;;;16.00;6.90;;;6.00;99.90;;;;;;8303409;28;20091;-79
2022/10/09 01:31:29;;;;;;;16.88;6.60;;;6.00;99.90;;;;;;8305090;28;20501;-79
2022/10/09 01:35:30;;;;;;;17.38;6.63;;;6.00;99.90;;;;;;8314495;28;20038;-79
2022/10/09 01:39:33;;;;;;;20.67;8.45;;;5.90;99.90;;;;;;8316915;28;20033;-79
2022/10/09 01:43:33;;;;;;;16.35;7.95;;;5.90;99.90;;;;;;8307007;28;20105;-79
2022/10/09 01:47:35;;;;;;;19.23;8.23;;;6.10;99.90;;;;;;8322835;28;20482;-79
2022/10/09 01:51:56;;;;;;;19.60;8.38;;;6.10;99.90;;;;;;8316423;28;20033;-79
2022/10/09 01:56:16;;;;;;;19.08;8.70;;;6.20;99.90;;;;;;8315300;28;20025;-77
2022/10/09 02:00:17;;;;;;;19.07;8.97;;;6.20;99.90;;;;;;8298526;28;20022;-78
2022/10/09 02:04:18;;;;;;;18.92;8.57;;;6.10;99.90;;;;;;8316343;28;20037;-79
2022/10/09 02:08:21;;;;;;;18.02;7.35;;;6.10;99.90;;;;;;8320786;28;20028;-79
2022/10/09 02:12:25;;;;;;;19.50;7.10;;;6.10;99.90;;;;;;8318191;28;20105;-79
2022/10/09 02:16:38;;;;;;;22.45;7.80;;;6.00;99.90;;;;;;8327522;28;20025;-78
2022/10/09 02:20:44;;;;;;;22.98;8.23;;;6.10;99.90;;;;;;8311137;28;20045;-78
2022/10/09 02:24:46;;;;;;;23.35;9.10;;;6.30;99.90;;;;;;8319660;28;20021;-78
2022/10/09 02:28:46;;;;;;;18.17;8.65;;;6.30;99.90;;;;;;8306490;28;20036;-78
2022/10/09 02:32:53;;;;;;;21.95;8.88;;;6.30;99.90;;;;;;8298193;28;20477;-78
2022/10/09 02:36:54;;;;;;;27.10;8.93;;;6.20;99.90;;;;;;8328558;28;20036;-78
2022/10/09 02:40:59;;;;;;;28.58;10.07;;;6.10;99.90;;;;;;8300138;28;20235;-78
2022/10/09 02:45:00;;;;;;;22.98;8.93;;;6.10;99.90;;;;;;8309452;28;20374;-78
2022/10/09 02:49:01;;;;;;;26.30;9.20;;;6.30;99.90;;;;;;8311242;28;20018;-79
2022/10/09 02:53:01;;;;;;;29.25;9.73;;;6.20;99.90;;;;;;8312102;28;20018;-78
2022/10/09 02:57:02;;;;;;;17.88;8.73;;;6.10;99.90;;;;;;8302246;28;20163;-79
2022/10/09 03:01:03;;;;;;;22.85;8.82;;;6.30;99.90;;;;;;8293538;28;20076;-79
2022/10/09 03:05:04;;;;;;;27.75;9.73;;;6.10;99.90;;;;;;8302566;28;20115;-78
2022/10/09 03:09:05;;;;;;;24.42;9.70;;;6.10;99.90;;;;;;8305987;28;20064;-78
2022/10/09 03:13:06;;;;;;;29.52;11.07;;;6.10;99.90;;;;;;8306649;28;20056;-79
2022/10/09 03:17:07;;;;;;;24.40;9.95;;;6.00;99.90;;;;;;8301864;28;20650;-79
2022/10/09 03:21:09;;;;;;;23.85;10.57;;;5.90;99.90;;;;;;8313120;28;20029;-79
2022/10/09 03:25:10;;;;;;;24.67;9.55;;;5.90;99.90;;;;;;8303175;28;20026;-79
2022/10/09 03:29:11;;;;;;;23.35;10.35;;;5.90;99.90;;;;;;8307191;28;20390;-79
2022/10/09 03:33:11;;;;;;;24.52;9.20;;;6.00;99.90;;;;;;8314744;28;20511;-79
2022/10/09 03:37:12;;;;;;;28.30;9.70;;;5.90;99.90;;;;;;8319881;28;20021;-78
2022/10/09 03:41:12;;;;;;;24.45;10.77;;;5.80;99.90;;;;;;8307172;28;20028;-79
2022/10/09 03:45:13;;;;;;;24.65;9.68;;;5.70;99.90;;;;;;8319472;28;20032;-79
2022/10/09 03:49:15;;;;;;;26.55;10.98;;;5.70;99.90;;;;;;8338170;28;20049;-80
2022/10/09 03:53:16;;;;;;;26.08;10.32;;;5.60;99.90;;;;;;8319357;28;20097;-79
2022/10/09 03:57:17;;;;;;;28.88;10.52;;;5.50;99.90;;;;;;8305049;28;20029;-79
2022/10/09 04:01:17;;;;;;;30.65;10.27;;;5.60;99.90;;;;;;8314648;28;20025;-78
2022/10/09 04:05:18;;;;;;;24.70;10.10;;;5.70;99.90;;;;;;8302592;28;20120;-79
2022/10/09 04:09:19;;;;;;;23.45;9.10;;;5.60;99.90;;;;;;8295384;28;20156;-79
2022/10/09 04:13:19;;;;;;;20.35;8.80;;;5.50;99.90;;;;;;8293744;28;20021;-79
2022/10/09 04:17:20;;;;;;;20.83;9.05;;;5.50;99.90;;;;;;8330517;28;20653;-79
2022/10/09 04:21:20;;;;;;;22.73;9.90;;;5.40;99.90;;;;;;8322021;28;20048;-79
2022/10/09 04:25:21;;;;;;;21.98;10.40;;;5.50;99.90;;;;;;8312103;28;20155;-80
2022/10/09 04:29:21;;;;;;;39.10;12.77;;;5.50;99.90;;;;;;8314004;28;20029;-78
2022/10/09 04:33:22;;;;;;;26.65;11.30;;;5.50;99.90;;;;;;8305577;28;20022;-79
2022/10/09 04:37:23;;;;;;;31.45;11.43;;;5.60;99.90;;;;;;8306128;28;20026;-79
2022/10/09 04:41:23;;;;;;;32.03;13.18;;;5.50;99.90;;;;;;8316861;28;20041;-79
2022/10/09 04:45:24;;;;;;;31.83;13.00;;;5.50;99.90;;;;;;8305616;28;20033;-79
2022/10/09 04:49:24;;;;;;;30.55;12.15;;;5.50;99.90;;;;;;8305441;28;20029;-78
2022/10/09 04:53:25;;;;;;;31.50;13.65;;;5.60;99.90;;;;;;8316864;28;20105;-79
2022/10/09 04:57:26;;;;;;;32.08;13.00;;;5.60;99.90;;;;;;8323054;28;20492;-79
2022/10/09 05:01:27;;;;;;;36.30;14.38;;;5.70;99.90;;;;;;8307387;28;20038;-79
2022/10/09 05:05:27;;;;;;;37.97;14.43;;;5.60;99.90;;;;;;8316604;28;20382;-78
2022/10/09 05:09:28;;;;;;;31.73;13.48;;;5.60;99.90;;;;;;8317891;28;20026;-79
2022/10/09 05:13:30;;;;;;;32.25;12.43;;;5.70;99.90;;;;;;8300713;28;20026;-79
2022/10/09 05:17:30;;;;;;;29.77;12.48;;;5.60;99.90;;;;;;8319973;28;20408;-79
2022/10/09 05:21:31;;;;;;;36.88;13.93;;;5.50;99.90;;;;;;8316246;28;20029;-79
2022/10/09 05:25:32;;;;;;;39.92;14.90;;;5.50;99.90;;;;;;8301764;28;20033;-79
2022/10/09 05:29:32;;;;;;;24.83;11.98;;;5.50;99.90;;;;;;8295029;28;20053;-79
2022/10/09 05:33:34;;;;;;;36.88;14.55;;;5.70;99.90;;;;;;8316082;28;20045;-79
2022/10/09 05:37:34;;;;;;;30.60;11.85;;;5.50;99.90;;;;;;8306047;28;20113;-79
2022/10/09 05:41:35;;;;;;;34.08;12.55;;;5.40;99.90;;;;;;8299156;28;20651;-79
2022/10/09 05:45:35;;;;;;;35.95;14.20;;;5.40;99.90;;;;;;8303103;28;20029;-79
2022/10/09 05:49:36;;;;;;;49.03;14.05;;;5.40;99.90;;;;;;8297624;28;20021;-79
2022/10/09 05:53:37;;;;;;;33.95;13.40;;;5.40;99.90;;;;;;8305881;28;20049;-79
2022/10/09 05:57:37;;;;;;;31.58;12.05;;;5.50;99.90;;;;;;8291252;28;20029;-78
2022/10/09 06:01:43;;;;;;;50.15;14.98;;;5.70;99.90;;;;;;8297731;28;20044;-79
2022/10/09 06:05:44;;;;;;;43.30;13.40;;;5.60;99.90;;;;;;8297000;28;20500;-80
2022/10/09 06:09:44;;;;;;;34.55;12.93;;;5.60;99.90;;;;;;8295541;28;20018;-79
2022/10/09 06:13:46;;;;;;;23.02;10.23;;;5.70;99.90;;;;;;8298105;28;20545;-78
2022/10/09 06:17:47;;;;;;;20.02;9.55;;;5.90;99.90;;;;;;8297582;28;20087;-79
2022/10/09 06:21:48;;;;;;;28.73;11.50;;;6.10;99.90;;;;;;8298052;28;20116;-81
2022/10/09 06:25:52;;;;;;;27.98;11.30;;;5.70;99.90;;;;;;8308709;28;20432;-80
2022/10/09 06:29:54;;;;;;;30.15;12.02;;;5.70;99.90;;;;;;8299183;28;20030;-80
2022/10/09 06:33:58;;;;;;;29.23;11.70;;;5.60;99.90;;;;;;8299779;28;20121;-79
2022/10/09 06:37:59;;;;;;;27.77;12.55;;;5.60;99.90;;;;;;8299677;28;20037;-80
2022/10/09 06:41:59;;;;;;;32.17;12.40;;;5.70;99.90;;;;;;8302035;28;20103;-80
2022/10/09 06:46:02;;;;;;;32.97;14.07;;;5.70;99.90;;;;;;8298831;28;20030;-80
2022/10/09 06:50:02;;;;;;;29.05;12.27;;;5.80;99.90;;;;;;8300002;28;20022;-79
2022/10/09 06:54:09;;;;;;;23.42;10.93;;;6.20;99.90;;;;;;8299692;28;20049;-80
2022/10/09 06:58:10;;;;;;;23.75;11.65;;;6.30;99.90;;;;;;8299884;28;20037;-79
2022/10/09 07:02:10;;;;;;;29.38;12.07;;;6.30;99.90;;;;;;8312518;28;20037;-80
2022/10/09 07:06:17;;;;;;;25.10;12.63;;;6.40;99.90;;;;;;8299719;28;20505;-80
2022/10/09 07:10:17;;;;;;;29.42;13.23;;;6.50;99.90;;;;;;8301019;28;20464;-80
2022/10/09 07:14:18;;;;;;;30.73;13.32;;;6.60;99.90;;;;;;8295991;28;20015;-80
2022/10/09 07:18:18;;;;;;;29.20;13.45;;;6.70;99.90;;;;;;8294490;28;20140;-80
2022/10/09 07:22:19;;;;;;;17.48;10.52;;;7.10;99.90;;;;;;8296789;28;20030;-79
2022/10/09 07:26:25;;;;;;;24.10;11.05;;;7.80;99.90;;;;;;8305807;28;20029;-80
2022/10/09 07:30:25;;;;;;;20.35;11.05;;;7.90;99.90;;;;;;8294012;28;20485;-79
2022/10/09 07:34:26;;;;;;;19.88;10.02;;;8.10;99.90;;;;;;8298586;28;20096;-80
2022/10/09 07:38:26;;;;;;;19.17;11.00;;;8.20;99.90;;;;;;8302218;28;20025;-80
2022/10/09 07:42:27;;;;;;;19.20;10.45;;;8.20;99.90;;;;;;8308322;28;20509;-80
2022/10/09 07:46:28;;;;;;;17.70;8.60;;;8.30;99.90;;;;;;8300623;28;20026;-79
2022/10/09 07:50:28;;;;;;;17.70;9.80;;;8.50;99.90;;;;;;8322381;28;20033;-80
2022/10/09 07:54:29;;;;;;;20.98;10.23;;;8.60;99.90;;;;;;8302268;28;20565;-79
2022/10/09 07:58:30;;;;;;;16.92;9.57;;;8.60;99.90;;;;;;8309182;28;20022;-80
2022/10/09 08:02:30;;;;;;;14.65;8.88;;;8.80;99.90;;;;;;8317796;28;20498;-79
2022/10/09 08:06:32;;;;;;;15.73;8.68;;;8.90;99.90;;;;;;8300836;28;20022;-79
2022/10/09 08:10:32;;;;;;;12.32;7.63;;;8.90;99.90;;;;;;8307167;28;20032;-78
2022/10/09 08:14:33;;;;;;;12.98;8.18;;;8.90;99.90;;;;;;8305757;28;20018;-80
2022/10/09 08:18:34;;;;;;;14.85;8.18;;;9.00;99.90;;;;;;8311743;28;20022;-80
2022/10/09 08:22:35;;;;;;;13.65;8.00;;;9.00;99.90;;;;;;8298063;28;20025;-80
2022/10/09 08:26:35;;;;;;;13.13;7.13;;;8.90;99.90;;;;;;8310238;28;20147;-80
2022/10/09 08:30:36;;;;;;;14.05;7.55;;;9.10;99.90;;;;;;8297887;28;20527;-80
2022/10/09 08:34:36;;;;;;;16.50;7.22;;;9.20;99.90;;;;;;8345625;28;20040;-79
2022/10/09 08:38:37;;;;;;;12.38;6.90;;;9.30;99.90;;;;;;8314385;28;20040;-78
2022/10/09 08:43:03;;;;;;;11.65;7.22;;;9.30;99.90;;;;;;8312990;28;20014;-80
2022/10/09 08:47:24;;;;;;;14.32;7.25;;;9.50;99.90;;;;;;8320295;28;20037;-78
2022/10/09 08:51:34;;;;;;;13.70;6.82;;;9.60;99.90;;;;;;8312222;28;20029;-79
2022/10/09 08:55:46;;;;;;;9.98;6.82;;;9.70;99.90;;;;;;8333938;28;20103;-79
2022/10/09 08:59:46;;;;;;;11.73;5.50;;;10.00;99.90;;;;;;8301530;28;20030;-79
2022/10/09 09:04:19;;;;;;;9.85;5.80;;;10.20;99.90;;;;;;8308158;28;20033;-79
2022/10/09 09:08:43;;;;;;;12.40;5.40;;;10.40;99.90;;;;;;8311164;28;20037;-80
2022/10/09 09:12:52;;;;;;;5.45;4.07;;;10.80;99.90;;;;;;8312177;28;20095;-79
2022/10/09 09:17:19;;;;;;;9.50;4.57;;;11.00;99.90;;;;;;8308744;28;20095;-80
2022/10/09 09:21:31;;;;;;;5.88;3.58;;;11.20;99.90;;;;;;8310329;28;20108;-81
2022/10/09 09:25:38;;;;;;;9.20;3.60;;;11.70;99.90;;;;;;8313473;28;20037;-79
2022/10/09 09:29:45;;;;;;;7.47;2.90;;;12.00;99.90;;;;;;8317453;28;20546;-83
2022/10/09 09:34:04;;;;;;;5.70;2.88;;;12.20;99.90;;;;;;8308582;28;20022;-83
2022/10/09 09:38:05;;;;;;;6.85;3.10;;;12.20;99.90;;;;;;8310819;28;20026;-83
2022/10/09 09:42:08;;;;;;;6.53;2.92;;;12.40;99.90;;;;;;8321226;28;20048;-82
2022/10/09 09:46:22;;;;;;;4.90;2.45;;;12.40;99.90;;;;;;8314510;28;20033;-83
2022/10/09 09:50:29;;;;;;;4.30;2.50;;;12.50;99.90;;;;;;8320619;28;20018;-82
2022/10/09 09:54:29;;;;;;;4.55;2.53;;;12.60;99.90;;;;;;8319558;28;20303;-82
2022/10/09 09:58:38;;;;;;;6.38;2.80;;;12.70;99.90;;;;;;8327448;28;20030;-83
2022/10/09 10:02:38;;;;;;;5.63;2.35;;;12.50;99.90;;;;;;8330489;22;20046;-80
2022/10/09 10:06:43;;;;;;;4.95;2.55;;;12.90;99.90;;;;;;8285261;28;20072;-79
2022/10/09 10:10:46;;;;;;;3.45;2.33;;;13.20;99.90;;;;;;8278146;28;20022;-79
2022/10/09 10:14:50;;;;;;;11.00;2.70;;;14.00;99.90;;;;;;8273638;28;20023;-79
2022/10/09 10:18:52;;;;;;;7.88;2.65;;;14.10;99.90;;;;;;8251174;28;20029;-79
2022/10/09 10:22:54;;;;;;;5.50;2.70;;;14.00;99.90;;;;;;8247637;28;20085;-77
2022/10/09 10:27:12;;;;;;;5.63;2.35;;;14.50;99.90;;;;;;8250197;28;20065;-79
2022/10/09 10:31:38;;;;;;;5.65;2.60;;;14.40;99.90;;;;;;8263349;28;20138;-77
2022/10/09 10:35:42;;;;;;;6.93;2.63;;;14.10;99.90;;;;;;8263469;28;20461;-78
2022/10/09 10:39:56;;;;;;;4.05;2.55;;;14.70;99.90;;;;;;8278039;28;20049;-78
2022/10/09 10:44:15;;;;;;;5.47;2.83;;;15.40;99.90;;;;;;8291870;28;20026;-78
2022/10/09 10:48:22;;;;;;;4.65;2.47;;;15.70;99.90;;;;;;8280592;28;20026;-78
2022/10/09 10:52:39;;;;;;;5.30;2.72;;;15.70;99.90;;;;;;8261231;28;20026;-78
2022/10/09 10:56:47;;;;;;;6.50;3.33;;;15.40;99.90;;;;;;8264633;28;20090;-78
2022/10/09 11:00:58;;;;;;;4.30;3.03;;;14.70;99.90;;;;;;8267357;28;20115;-78
2022/10/09 11:05:17;;;;;;;5.88;3.15;;;14.60;99.90;;;;;;8274640;28;20032;-79
2022/10/09 11:09:44;;;;;;;8.27;3.45;;;14.50;99.90;;;;;;8266730;28;20033;-78
2022/10/09 11:14:08;;;;;;;5.55;3.42;;;14.50;99.90;;;;;;8252317;28;20023;-79
2022/10/09 11:18:31;;;;;;;6.15;3.20;;;14.70;99.90;;;;;;8241001;28;20031;-79
2022/10/09 11:22:32;;;;;;;7.07;3.40;;;15.00;99.90;;;;;;8271243;28;20027;-79
2022/10/09 11:26:42;;;;;;;6.95;4.13;;;15.10;99.90;;;;;;8274394;28;20053;-77
2022/10/09 11:30:53;;;;;;;7.65;4.22;;;15.30;99.90;;;;;;8270540;28;20773;-79
2022/10/09 11:35:11;;;;;;;7.88;3.45;;;15.60;99.90;;;;;;8281348;28;20038;-78
2022/10/09 11:39:25;;;;;;;6.05;3.85;;;15.50;99.90;;;;;;8265637;28;20038;-78
2022/10/09 11:43:25;;;;;;;5.90;3.30;;;15.80;99.90;;;;;;8277025;28;20031;-79
2022/10/09 11:47:45;;;;;;;6.38;3.80;;;15.50;99.90;;;;;;8277491;28;20037;-78
2022/10/09 11:52:16;;;;;;;5.78;2.85;;;15.70;99.90;;;;;;8272637;28;20084;-78
2022/10/09 11:56:26;;;;;;;5.63;3.60;;;15.70;99.90;;;;;;8264875;28;20514;-79
2022/10/09 12:00:33;;;;;;;4.77;3.33;;;15.70;99.90;;;;;;8273461;28;20526;-78
2022/10/09 12:04:34;;;;;;;5.68;3.20;;;15.80;99.90;;;;;;8268259;28;20731;-79
2022/10/09 12:08:36;;;;;;;6.03;2.92;;;16.20;99.90;;;;;;8284740;28;20049;-78
2022/10/09 12:12:37;;;;;;;6.90;3.38;;;16.10;99.90;;;;;;8279811;28;20025;-79
2022/10/09 12:16:44;;;;;;;5.50;2.80;;;16.20;99.90;;;;;;8266913;28;20023;-78
2022/10/09 12:20:47;;;;;;;4.15;2.80;;;16.50;99.90;;;;;;8276730;28;20033;-78
2022/10/09 12:24:51;;;;;;;5.63;3.33;;;16.40;99.90;;;;;;8279166;28;20105;-78
2022/10/09 12:29:04;;;;;;;5.95;2.90;;;16.10;99.90;;;;;;8272301;28;20022;-78
2022/10/09 12:33:19;;;;;;;5.32;2.50;;;16.00;99.90;;;;;;8275432;28;20026;-80
2022/10/09 12:37:29;;;;;;;6.60;3.40;;;15.70;99.90;;;;;;8272977;28;20099;-79
2022/10/09 12:41:33;;;;;;;5.25;3.15;;;15.40;99.90;;;;;;8285723;28;20181;-79
2022/10/09 12:45:41;;;;;;;5.97;3.20;;;15.20;99.90;;;;;;8278983;28;20044;-78
2022/10/09 12:49:52;;;;;;;3.63;2.97;;;15.20;99.90;;;;;;8291535;28;20616;-78
2022/10/09 12:53:53;;;;;;;6.38;3.53;;;15.10;99.90;;;;;;8275467;28;20080;-79
2022/10/09 12:57:59;;;;;;;6.45;3.40;;;15.00;99.90;;;;;;8277753;28;20027;-79
2022/10/09 13:02:01;;;;;;;4.93;3.50;;;14.80;99.90;;;;;;8288340;28;20034;-78
2022/10/09 13:06:05;;;;;;;6.45;3.58;;;14.80;99.90;;;;;;8278995;28;20070;-79
2022/10/09 13:10:17;;;;;;;5.88;3.75;;;14.40;99.90;;;;;;8279630;28;20530;-78
2022/10/09 13:14:33;;;;;;;5.47;3.58;;;14.20;99.90;;;;;;8292530;28;20109;-78
2022/10/09 13:18:34;;;;;;;6.00;3.58;;;14.30;99.90;;;;;;8278595;28;20472;-79
2022/10/09 13:22:34;;;;;;;5.97;3.45;;;14.40;99.90;;;;;;8286081;28;20030;-79
2022/10/09 13:26:36;;;;;;;8.07;4.25;;;14.30;99.90;;;;;;8285104;28;20413;-80
2022/10/09 13:30:37;;;;;;;6.35;4.03;;;14.30;99.90;;;;;;8277847;28;20022;-79
2022/10/09 13:34:37;;;;;;;6.82;4.57;;;14.30;99.90;;;;;;8288856;28;20049;-78
2022/10/09 13:38:38;;;;;;;8.40;4.38;;;14.40;99.90;;;;;;8277449;28;20053;-79
2022/10/09 13:42:39;;;;;;;7.97;4.57;;;14.40;99.90;;;;;;8278840;28;20025;-79
2022/10/09 13:46:39;;;;;;;6.25;3.70;;;14.40;99.90;;;;;;8287615;28;20023;-80
2022/10/09 13:50:40;;;;;;;7.60;4.68;;;14.50;99.90;;;;;;8282663;28;20032;-79
2022/10/09 13:54:41;;;;;;;7.88;4.35;;;14.50;99.90;;;;;;8267046;28;20014;-78
2022/10/09 13:58:41;;;;;;;6.05;4.25;;;14.40;99.90;;;;;;8285586;28;20029;-78
2022/10/09 14:02:42;;;;;;;6.53;5.13;;;14.40;99.90;;;;;;8277377;28;20030;-78
2022/10/09 14:06:43;;;;;;;6.68;4.75;;;14.40;99.90;;;;;;8273243;28;20026;-77
2022/10/09 14:10:43;;;;;;;6.05;4.47;;;14.40;99.90;;;;;;8283050;28;20378;-79
2022/10/09 14:14:44;;;;;;;8.02;4.97;;;14.40;99.90;;;;;;8283214;28;20025;-79
2022/10/09 14:18:45;;;;;;;6.68;4.68;;;14.50;99.90;;;;;;8275818;28;20512;-79
2022/10/09 14:22:45;;;;;;;8.30;5.53;;;14.10;99.90;;;;;;8270646;28;20018;-78
2022/10/09 14:26:46;;;;;;;8.70;6.72;;;14.10;99.90;;;;;;8278771;28;20037;-79
2022/10/09 14:30:46;;;;;;;7.97;4.97;;;14.20;99.90;;;;;;8277532;28;20022;-79
2022/10/09 14:34:47;;;;;;;9.75;6.40;;;14.30;99.90;;;;;;8281535;28;20461;-79
2022/10/09 14:38:48;;;;;;;6.82;4.95;;;14.20;99.90;;;;;;8278998;28;20023;-79
2022/10/09 14:42:49;;;;;;;8.30;5.00;;;14.00;99.90;;;;;;8268383;28;20031;-78
2022/10/09 14:46:49;;;;;;;10.00;6.47;;;13.80;99.90;;;;;;8271499;28;20029;-78
2022/10/09 14:50:50;;;;;;;8.55;5.50;;;13.80;99.90;;;;;;8282897;28;20405;-79
2022/10/09 14:54:50;;;;;;;8.00;5.20;;;14.00;99.90;;;;;;8262706;28;20018;-79
2022/10/09 14:58:51;;;;;;;9.30;5.05;;;13.80;99.90;;;;;;8265981;28;20041;-79
2022/10/09 15:02:52;;;;;;;7.90;4.55;;;13.80;99.90;;;;;;8255012;28;20022;-77
2022/10/09 15:06:52;;;;;;;20.90;10.85;;;13.80;99.90;;;;;;8258493;28;20023;-79
2022/10/09 15:10:53;;;;;;;7.93;4.85;;;13.70;99.90;;;;;;8262945;28;20010;-78
2022/10/09 15:14:53;;;;;;;6.53;4.80;;;13.80;99.90;;;;;;8257303;28;20026;-79
2022/10/09 15:18:54;;;;;;;7.18;4.70;;;13.60;99.90;;;;;;8262433;28;20407;-77
2022/10/09 15:22:55;;;;;;;5.32;4.28;;;13.70;99.90;;;;;;8267717;28;20037;-78
2022/10/09 15:26:56;;;;;;;7.80;4.40;;;13.70;99.90;;;;;;8256583;28;20562;-78
2022/10/09 15:31:00;;;;;;;7.50;4.40;;;13.50;99.90;;;;;;8264890;28;20031;-80
2022/10/09 15:35:08;;;;;;;8.40;4.00;;;13.50;99.90;;;;;;8272170;28;20457;-80
2022/10/09 15:39:09;;;;;;;9.55;4.50;;;13.50;99.90;;;;;;8278956;28;20027;-79
2022/10/09 15:43:15;;;;;;;7.05;4.38;;;13.40;99.90;;;;;;8264060;28;20053;-78
2022/10/09 15:47:16;;;;;;;5.88;4.18;;;13.30;99.90;;;;;;8254626;28;20019;-79
2022/10/09 15:51:17;;;;;;;5.53;3.90;;;13.30;99.90;;;;;;8270188;28;20430;-79
2022/10/09 15:55:17;;;;;;;6.72;4.00;;;13.20;99.90;;;;;;8275202;28;20022;-80
2022/10/09 15:59:18;;;;;;;6.30;4.43;;;13.30;99.90;;;;;;8266046;28;20737;-80
2022/10/09 16:03:18;;;;;;;7.13;4.28;;;13.20;99.90;;;;;;8281362;22;20120;-80
2022/10/09 16:07:19;;;;;;;7.97;4.65;;;13.30;99.90;;;;;;8299215;28;20045;-79
2022/10/09 16:11:19;;;;;;;7.13;4.15;;;13.00;99.90;;;;;;8298189;28;20559;-80
2022/10/09 16:15:20;;;;;;;6.35;4.35;;;13.00;99.90;;;;;;8297633;28;20065;-80
2022/10/09 16:19:21;;;;;;;6.00;4.28;;;13.00;99.90;;;;;;8299943;28;20084;-79
2022/10/09 16:23:23;;;;;;;8.93;6.40;;;13.10;99.90;;;;;;8300668;28;20137;-79
2022/10/09 16:27:24;;;;;;;37.00;26.48;;;12.90;99.90;;;;;;8301961;28;20056;-79
2022/10/09 16:31:30;;;;;;;10.80;6.60;;;13.00;99.90;;;;;;8299868;28;20029;-80
2022/10/09 16:35:31;;;;;;;9.02;5.53;;;13.00;99.90;;;;;;8298759;28;20026;-80
2022/10/09 16:39:31;;;;;;;11.05;5.57;;;13.00;99.90;;;;;;8305466;28;20076;-80
2022/10/09 16:43:32;;;;;;;9.70;6.63;;;13.00;99.90;;;;;;8304239;28;20088;-80
2022/10/09 16:47:33;;;;;;;9.80;5.47;;;12.90;99.90;;;;;;8308058;28;20509;-80
2022/10/09 16:51:35;;;;;;;6.68;4.47;;;12.80;99.90;;;;;;8304931;28;20026;-80
2022/10/09 16:55:35;;;;;;;6.72;5.32;;;12.80;99.90;;;;;;8300042;28;20112;-80
2022/10/09 16:59:36;;;;;;;9.50;5.45;;;12.70;99.90;;;;;;8297982;28;20590;-79
2022/10/09 17:03:39;;;;;;;8.48;5.70;;;12.60;99.90;;;;;;8296687;28;20041;-82
2022/10/09 17:07:40;;;;;;;8.02;5.07;;;12.50;99.90;;;;;;8297887;28;20389;-79
2022/10/09 17:11:42;;;;;;;6.60;5.22;;;12.40;99.90;;;;;;8296861;28;20021;-80
2022/10/09 17:15:42;;;;;;;6.70;5.15;;;12.30;99.90;;;;;;8295968;28;20401;-80
2022/10/09 17:19:44;;;;;;;6.95;5.35;;;12.40;99.90;;;;;;8296473;28;20034;-80
2022/10/09 17:23:45;;;;;;;8.27;5.32;;;12.50;99.90;;;;;;8297215;28;20022;-79
2022/10/09 17:27:46;;;;;;;8.88;5.22;;;12.50;99.90;;;;;;8300980;28;20026;-79
2022/10/09 17:31:47;;;;;;;6.18;5.30;;;12.30;99.90;;;;;;8299262;28;20711;-79
2022/10/09 17:35:47;;;;;;;8.15;6.10;;;12.10;99.90;;;;;;8297127;28;20038;-79
2022/10/09 17:39:48;;;;;;;8.25;5.88;;;12.10;99.90;;;;;;8301171;28;20034;-80
2022/10/09 17:43:50;;;;;;;7.78;5.60;;;12.10;99.90;;;;;;8294657;28;20033;-79
2022/10/09 17:47:51;;;;;;;11.30;6.32;;;12.10;99.90;;;;;;8295317;28;20036;-79
2022/10/09 17:51:53;;;;;;;7.72;5.72;;;12.00;99.90;;;;;;8296041;28;20440;-79
2022/10/09 17:55:55;;;;;;;6.95;5.30;;;11.80;99.90;;;;;;8296622;28;20052;-80
2022/10/09 17:59:56;;;;;;;6.80;5.20;;;11.80;99.90;;;;;;8294297;28;20565;-80
2022/10/09 18:03:57;;;;;;;10.32;5.60;;;12.00;99.90;;;;;;8295402;28;20044;-80
2022/10/09 18:07:58;;;;;;;7.80;5.35;;;11.90;99.90;;;;;;8298037;28;20084;-80
2022/10/09 18:11:58;;;;;;;11.55;5.80;;;11.70;99.90;;;;;;8297196;28;20021;-79
2022/10/09 18:15:59;;;;;;;8.00;5.70;;;11.80;99.90;;;;;;8295746;28;20049;-79
2022/10/09 18:19:59;;;;;;;9.30;5.65;;;11.90;99.90;;;;;;8297182;28;20040;-79
2022/10/09 18:24:00;;;;;;;7.72;4.93;;;12.00;99.90;;;;;;8299392;28;20084;-80
2022/10/09 18:28:01;;;;;;;11.45;5.82;;;11.70;99.90;;;;;;8295293;28;20037;-79
2022/10/09 18:32:02;;;;;;;8.15;5.43;;;11.60;99.90;;;;;;8293384;28;21310;-79
2022/10/09 18:36:18;;;;;;;8.02;5.10;;;11.50;99.90;;;;;;8293727;28;20096;-78
2022/10/09 18:40:18;;;;;;;8.13;4.55;;;11.50;99.90;;;;;;8295198;28;20026;-79
2022/10/09 18:44:20;;;;;;;6.40;4.97;;;11.70;99.90;;;;;;8292156;28;20034;-80
2022/10/09 18:48:22;;;;;;;6.78;4.63;;;11.70;99.90;;;;;;8294874;28;20075;-79
2022/10/09 18:52:23;;;;;;;8.10;4.80;;;11.60;99.90;;;;;;8292703;28;20088;-79
2022/10/09 18:56:24;;;;;;;11.63;5.35;;;11.50;99.90;;;;;;8293223;28;20037;-79
2022/10/09 19:00:25;;;;;;;9.85;5.13;;;11.50;99.90;;;;;;8291438;28;20029;-78
2022/10/09 19:04:26;;;;;;;12.65;5.45;;;11.40;99.90;;;;;;8291233;28;20045;-79
2022/10/09 19:08:26;;;;;;;9.23;5.63;;;11.40;99.90;;;;;;8292531;28;20034;-80
2022/10/09 19:12:27;;;;;;;23.08;11.98;;;11.40;99.90;;;;;;8291074;28;20105;-80
2022/10/09 19:16:29;;;;;;;12.48;8.38;;;11.50;99.90;;;;;;8292125;28;20441;-80
2022/10/09 19:20:30;;;;;;;10.80;5.53;;;11.60;99.90;;;;;;8292823;28;20033;-80
2022/10/09 19:24:31;;;;;;;10.50;5.90;;;11.50;99.90;;;;;;8292786;28;20030;-80
2022/10/09 19:28:36;;;;;;;8.15;5.68;;;11.70;99.90;;;;;;8294053;28;20048;-79
2022/10/09 19:32:37;;;;;;;8.38;5.93;;;11.60;99.90;;;;;;8293284;28;21598;-80
2022/10/09 19:36:37;;;;;;;7.72;5.75;;;11.40;99.90;;;;;;8295051;28;20555;-79
2022/10/09 19:40:38;;;;;;;10.60;5.70;;;11.40;99.90;;;;;;8292417;28;20041;-80
2022/10/09 19:44:42;;;;;;;9.48;6.38;;;11.50;99.90;;;;;;8295184;28;20109;-79
2022/10/09 19:48:43;;;;;;;7.93;6.30;;;11.60;99.90;;;;;;8293735;28;20124;-79
2022/10/09 19:52:45;;;;;;;7.40;5.75;;;11.40;99.90;;;;;;8293612;28;20025;-79
2022/10/09 19:56:46;;;;;;;10.88;5.97;;;11.60;99.90;;;;;;8294385;28;20040;-79
2022/10/09 20:00:48;;;;;;;11.88;6.32;;;11.50;99.90;;;;;;8295271;28;20034;-79
2022/10/09 20:04:48;;;;;;;14.80;6.55;;;11.30;99.90;;;;;;8294895;28;20122;-79
2022/10/09 20:08:49;;;;;;;9.57;6.60;;;11.30;99.90;;;;;;8293021;28;20021;-79
2022/10/09 20:12:49;;;;;;;12.02;6.00;;;11.20;99.90;;;;;;8294462;28;20029;-80
2022/10/09 20:16:50;;;;;;;11.32;6.38;;;11.10;99.90;;;;;;8297505;28;20022;-80
2022/10/09 20:20:51;;;;;;;13.13;8.27;;;11.00;99.90;;;;;;8298969;28;20041;-79
2022/10/09 20:24:52;;;;;;;16.60;8.93;;;11.10;99.90;;;;;;8299438;28;20018;-80
2022/10/09 20:28:52;;;;;;;13.43;8.73;;;11.00;99.90;;;;;;8304425;28;20026;-80
2022/10/09 20:32:54;;;;;;;12.25;8.90;;;10.90;99.90;;;;;;8304106;28;20505;-79
2022/10/09 20:36:54;;;;;;;11.48;8.30;;;10.90;99.90;;;;;;8303426;28;20048;-79
2022/10/09 20:41:06;;;;;;;16.10;8.40;;;10.90;99.90;;;;;;8302187;28;20022;-80
2022/10/09 20:45:07;;;;;;;12.93;8.73;;;11.00;99.90;;;;;;8303277;28;20090;-80
2022/10/09 20:49:11;;;;;;;14.40;8.75;;;11.00;99.90;;;;;;8302190;28;20042;-80
2022/10/09 20:53:11;;;;;;;10.90;8.43;;;11.00;99.90;;;;;;8302056;28;20045;-80
2022/10/09 20:57:12;;;;;;;8.25;5.95;;;11.10;99.90;;;;;;8301717;28;20041;-80
2022/10/09 21:01:14;;;;;;;9.15;6.35;;;11.40;99.90;;;;;;8302432;28;20076;-80